Decatur, AL

7:48 AM CST on December 22, 2014 (GMT -0600)
Pointe Mallard | Change Station
CLOSE
Current Station
Personal Weather Station
Location: Decatur, AL
Elevation: 580 ft
Nearby Weather Stations

Elev 580 ft 34.58 °N, 86.94 °W | Updated 3 minutes ago

Overcast
Overcast
46.8 °F
Feels Like 47 °F
N
0.0
Wind Variable Wind from ENE
Gusts 0.0 mph

Today
High -- | Low -- °F
--% Chance of Precip.
Yesterday
High -- | Low -- °F
Precip. -- in
6:51 AM 4:41 PM
New Moon, 0% visible
Pressure 29.96 in
Visibility 5.0 miles
Clouds Overcast 800 ft
Windchill 47 °F
Dew Point Not available.
Humidity Not available.
Rainfall 0.00 in
Snow Depth Not available.
UV 0 out of 12
Pollen .70 out of 12
Air Quality Not available.
Flu Activity Not available.
SPECI KDCU 221300Z AUTO 13007KT 5SM BR OVC008 09/08 A2996 RMK AO2 $

More Conditions Fewer Conditions

Pressure 29.96 in
Visibility 5.0 miles
Clouds Overcast 800 ft
Windchill 47 °F
Dew Point Not available.
Humidity Not available.
Rainfall 0.00 in
Snow Depth Not available.
UV 0 out of 12
Pollen .70 out of 12
Air Quality Not available.
Flu Activity Not available.
SPECI KDCU 221300Z AUTO 13007KT 5SM BR OVC008 09/08 A2996 RMK AO2 $

More Conditions Fewer Conditions

10-Day Weather Forecast

Almanac

Astronomy

Dec. 22, 2014 Rise Set
Actual Time
Civil Twilight
Nautical Twilight
Astronomical Twilight
Moon
Length of Visible Light
Length of Day
Tomorrow will be .
, % of the Moon is Illuminated

Today's Extremes

State Highs State Lows

Community

WunderPhotos

Upload Photos

1,779,599 photos uploaded!

WunderBlogs® & News

Nearby

Air Quality

  Air Quality AQ Index Pollutant
Not available.

Snow Depth

Station Depth Elevation

Earthquake Activity

City Distance Mag. Time & Date
Minimum magnitude displayed is 2.5.

Coastal Water Temperatures

Place Temperature

Nearby Weather Stations